SCCY

Teniente Vidal Airport

Airport
ICAO code
SCCY
IATA Code
GXQ
Summary
ICAO Region
CARSAM
ICAO Territory
Location

Coyhaique, Aisen del General Carlos Ibanez del Campo

Serving
Coyhaique
Elevation
1020 ft
Coordinates
45° 35' 39" S , 72° 6' 22" W
KCC
Metar
Observation
SCCY 050300Z AUTO 16003KT 110V240 CAVOK 20/12 Q1009
Station
Coyhaique
Date/Time
2023-02-05 03:00:00
Wind direction
160°
Wind speed
03 kts
Lowest cloud amount
clouds and visibility OK
Temperature
20°C
Dew point
12°C
Humidity
60%
QNH
1009 hPa
Weather condition
n/a

Airport 4 km southwest of Coyhaique, Chile.

Climatology

Temperate oceanic climate (Köppen climate classification Cfb)

Runways

Designator Length Width Surface Rops
3/21 1546 30 ASP No/No

Airport map

Aerial View

SKYbrary Partners:

Safety knowledge contributed by: